Station History

Weather Underground - logo

Station Historical Data
Daily Summary for September 3, 2017 Units:  English    Metric   Both
« Previous Day
Next Day »
Daily Weekly Monthly Yearly Custom
  High: Low: Average:
Temperature: 104.1 °F 77.4 °F 90.6 °F
Dew Point: 72.2 °F 59.0 °F 66.9 °F
Humidity: 73 % 23 % 48 %
Wind Speed: 12.7 mph 0.0 mph 1 mph
Wind Gust: 12.7 mph - -
Wind:- - WSW
Pressure: 29.86 in 29.72 in -
Precipitation: 0.00 in    
Historical Graphs
 
 
Tabular Data for September 3, 2017
Time Temperature Dew Point Pressure Wind Wind Speed Wind Gust Humidity Rainfall Rate (Hourly)
00:04 84.7 °F 66.2 °F 29.77 in SE 1.2 mph   54 % 0.00 in
00:09 85.1 °F 66.6 °F 29.77 in SE 1.2 mph   54 % 0.00 in
00:14 85.2 °F 66.7 °F 29.78 in SE 1.2 mph 1.2 mph 54 % 0.00 in
00:19 84.7 °F 66.7 °F 29.78 in Calm     55 % 0.00 in
00:24 84.4 °F 66.5 °F 29.77 in Calm     55 % 0.00 in
00:29 84.3 °F 66.9 °F 29.78 in Calm     56 % 0.00 in
00:34 83.7 °F 66.8 °F 29.77 in SE 1.2 mph 1.2 mph 57 % 0.00 in
00:39 83.2 °F 66.9 °F 29.78 in SSE 1.2 mph 1.2 mph 58 % 0.00 in
00:44 82.9 °F 67.6 °F 29.78 in Calm     60 % 0.00 in
00:49 82.6 °F 66.8 °F 29.77 in SE 1.2 mph   59 % 0.00 in
00:54 82.4 °F 66.6 °F 29.77 in SE 1.2 mph   59 % 0.00 in
00:59 82.3 °F 67.0 °F 29.77 in SE 1.2 mph   60 % 0.00 in
01:04 82.1 °F 66.4 °F 29.77 in Calm     59 % 0.00 in
01:09 82.1 °F 65.9 °F 29.77 in Calm   0.2 mph 58 % 0.00 in
01:14 83.0 °F 66.7 °F 29.77 in Calm     58 % 0.00 in
01:15 83.0 °F 66.7 °F 29.77 in Calm     58 % 0.00 in
01:20 83.2 °F 65.9 °F 29.77 in Calm     56 % 0.00 in
01:25 83.1 °F 66.8 °F 29.77 in ESE 1.2 mph   58 % 0.00 in
01:30 82.8 °F 65.5 °F 29.77 in Calm     56 % 0.00 in
01:35 82.6 °F 66.3 °F 29.77 in Calm     58 % 0.00 in
01:40 82.4 °F 66.1 °F 29.77 in Calm     58 % 0.00 in
01:45 82.3 °F 66.5 °F 29.77 in Calm     59 % 0.00 in
01:50 81.5 °F 67.2 °F 29.78 in NW 2.3 mph 2.3 mph 62 % 0.00 in
01:55 80.8 °F 67.5 °F 29.77 in NW 1.2 mph 1.2 mph 64 % 0.00 in
02:00 80.6 °F 67.3 °F 29.77 in Calm     64 % 0.00 in
02:05 80.5 °F 67.6 °F 29.78 in Calm     65 % 0.00 in
02:10 80.4 °F 68.0 °F 29.78 in Calm     66 % 0.00 in
02:15 80.0 °F 68.1 °F 29.78 in Calm     67 % 0.00 in
02:20 79.7 °F 67.8 °F 29.78 in Calm     67 % 0.00 in
02:25 79.6 °F 68.1 °F 29.78 in Calm     68 % 0.00 in
02:30 79.6 °F 68.1 °F 29.78 in Calm     68 % 0.00 in
02:35 79.4 °F 68.8 °F 29.78 in Calm     70 % 0.00 in
02:40 79.0 °F 68.4 °F 29.78 in Calm     70 % 0.00 in
02:45 78.7 °F 68.9 °F 29.78 in Calm     72 % 0.00 in
02:50 78.2 °F 68.4 °F 29.78 in Calm     72 % 0.00 in
02:55 77.9 °F 68.5 °F 29.78 in Calm     73 % 0.00 in
03:00 77.7 °F 68.4 °F 29.78 in Calm     73 % 0.00 in
03:05 77.6 °F 68.3 °F 29.78 in Calm     73 % 0.00 in
03:10 77.6 °F 68.3 °F 29.78 in Calm     73 % 0.00 in
03:15 77.5 °F 67.8 °F 29.78 in Calm     72 % 0.00 in
03:20 77.4 °F 67.7 °F 29.78 in Calm     72 % 0.00 in
03:25 77.6 °F 68.3 °F 29.78 in Calm     73 % 0.00 in
03:30 77.7 °F 68.0 °F 29.78 in Calm     72 % 0.00 in
03:35 77.8 °F 67.2 °F 29.78 in Calm     70 % 0.00 in
03:40 78.2 °F 67.6 °F 29.78 in Calm     70 % 0.00 in
03:45 78.1 °F 67.1 °F 29.78 in Calm     69 % 0.00 in
03:50 78.0 °F 67.0 °F 29.78 in Calm     69 % 0.00 in
03:55 78.0 °F 66.6 °F 29.78 in Calm     68 % 0.00 in
04:00 78.1 °F 66.7 °F 29.78 in Calm     68 % 0.00 in
04:05 78.4 °F 66.1 °F 29.78 in Calm     66 % 0.00 in
04:10 78.6 °F 66.3 °F 29.78 in Calm     66 % 0.00 in
04:15 78.7 °F 67.2 °F 29.78 in Calm     68 % 0.00 in
04:20 78.5 °F 67.1 °F 29.78 in Calm     68 % 0.00 in
04:25 78.5 °F 66.2 °F 29.78 in NNE 1.2 mph 1.2 mph 66 % 0.00 in
04:30 79.2 °F 65.1 °F 29.78 in Calm     62 % 0.00 in
04:35 80.2 °F 65.1 °F 29.78 in East 1.0 mph 1.0 mph 60 % 0.00 in
04:40 81.1 °F 64.4 °F 29.79 in East 2.3 mph 2.3 mph 57 % 0.00 in
04:45 81.6 °F 65.4 °F 29.79 in NNE 1.2 mph   58 % 0.00 in
04:50 81.7 °F 65.0 °F 29.79 in NW 1.2 mph 1.2 mph 57 % 0.00 in
04:55 81.8 °F 65.1 °F 29.80 in Calm     57 % 0.00 in
05:00 81.8 °F 65.1 °F 29.80 in Calm     57 % 0.00 in
05:05 81.7 °F 65.5 °F 29.80 in Calm     58 % 0.00 in
05:10 81.3 °F 66.1 °F 29.80 in Calm     60 % 0.00 in
05:15 80.7 °F 66.5 °F 29.80 in Calm     62 % 0.00 in
05:20 80.1 °F 66.4 °F 29.81 in Calm     63 % 0.00 in
05:25 79.8 °F 66.5 °F 29.81 in Calm     64 % 0.00 in
05:30 79.6 °F 65.9 °F 29.81 in Calm     63 % 0.00 in
05:35 79.5 °F 66.3 °F 29.81 in Calm     64 % 0.00 in
05:40 79.3 °F 66.1 °F 29.81 in Calm     64 % 0.00 in
05:45 79.8 °F 65.6 °F 29.81 in Calm     62 % 0.00 in
05:50 80.1 °F 65.4 °F 29.82 in Calm     61 % 0.00 in
05:56 80.0 °F 65.3 °F 29.82 in Calm     61 % 0.00 in
06:01 79.8 °F 65.2 °F 29.82 in Calm     61 % 0.00 in
06:06 79.6 °F 65.9 °F 29.82 in Calm     63 % 0.00 in
06:11 79.4 °F 66.2 °F 29.82 in Calm     64 % 0.00 in
06:16 79.2 °F 64.6 °F 29.82 in Calm     61 % 0.00 in
06:21 79.2 °F 66.4 °F 29.82 in Calm     65 % 0.00 in
06:26 79.4 °F 67.0 °F 29.82 in Calm     66 % 0.00 in
06:31 79.2 °F 66.4 °F 29.82 in Calm     65 % 0.00 in
06:36 78.8 °F 66.9 °F 29.82 in Calm     67 % 0.00 in
06:41 78.8 °F 66.5 °F 29.83 in Calm     66 % 0.00 in
06:46 78.7 °F 67.7 °F 29.83 in Calm     69 % 0.00 in
06:51 78.3 °F 66.9 °F 29.84 in NE 1.2 mph   68 % 0.00 in
06:56 78.2 °F 67.2 °F 29.84 in Calm     69 % 0.00 in
07:01 78.2 °F 67.2 °F 29.84 in Calm     69 % 0.00 in
07:06 78.2 °F 67.2 °F 29.84 in Calm     69 % 0.00 in
07:11 78.4 °F 67.0 °F 29.84 in Calm     68 % 0.00 in
07:16 78.6 °F 64.9 °F 29.84 in Calm     63 % 0.00 in
07:21 79.2 °F 65.5 °F 29.84 in Calm     63 % 0.00 in
07:26 79.5 °F 66.3 °F 29.84 in Calm     64 % 0.00 in
07:31 79.7 °F 66.4 °F 29.84 in Calm     64 % 0.00 in
07:36 80.0 °F 67.2 °F 29.85 in Calm     65 % 0.00 in
07:41 80.3 °F 67.5 °F 29.85 in NE 1.2 mph   65 % 0.00 in
07:46 80.5 °F 66.3 °F 29.85 in Calm     62 % 0.00 in
07:51 81.0 °F 69.4 °F 29.85 in Calm     68 % 0.00 in
07:56 81.2 °F 69.2 °F 29.85 in Calm     67 % 0.00 in
08:01 81.9 °F 69.4 °F 29.85 in Calm     66 % 0.00 in
08:06 82.7 °F 69.7 °F 29.85 in Calm     65 % 0.00 in
08:11 83.3 °F 68.9 °F 29.86 in Calm     62 % 0.00 in
08:16 83.9 °F 68.0 °F 29.85 in Calm     59 % 0.00 in
08:17 84.1 °F 68.2 °F 29.85 in Calm     59 % 0.00 in
08:22 85.0 °F 67.0 °F 29.86 in Calm     55 % 0.00 in
08:27 86.0 °F 68.0 °F 29.85 in Calm     55 % 0.00 in
08:32 86.6 °F 69.0 °F 29.85 in Calm     56 % 0.00 in
08:37 87.4 °F 67.6 °F 29.85 in Calm     52 % 0.00 in
08:42 88.3 °F 68.4 °F 29.85 in Calm     52 % 0.00 in
08:47 89.5 °F 68.4 °F 29.85 in Calm     50 % 0.00 in
08:52 90.5 °F 68.1 °F 29.86 in Calm     48 % 0.00 in
08:57 91.3 °F 69.5 °F 29.86 in Calm     49 % 0.00 in
09:02 90.8 °F 69.0 °F 29.86 in Calm     49 % 0.00 in
09:07 91.2 °F 69.4 °F 29.86 in Calm     49 % 0.00 in
09:12 92.0 °F 70.7 °F 29.85 in Calm     50 % 0.00 in
09:13 92.1 °F 70.8 °F 29.86 in Calm     50 % 0.00 in
09:18 93.2 °F 68.7 °F 29.85 in Calm     45 % 0.00 in
09:23 93.3 °F 65.4 °F 29.85 in Calm     40 % 0.00 in
09:28 94.0 °F 67.4 °F 29.86 in Calm     42 % 0.00 in
09:33 94.9 °F 66.1 °F 29.86 in Calm     39 % 0.00 in
09:38 95.4 °F 65.8 °F 29.86 in ESE 1.2 mph   38 % 0.00 in
09:43 96.0 °F 68.5 °F 29.86 in Calm     41 % 0.00 in
09:48 96.3 °F 72.2 °F 29.86 in ESE 1.2 mph   46 % 0.00 in
09:53 95.8 °F 69.7 °F 29.86 in Calm   0.2 mph 43 % 0.00 in
09:58 95.5 °F 70.1 °F 29.86 in SE 1.2 mph   44 % 0.00 in
10:03 95.7 °F 70.3 °F 29.86 in SE 1.2 mph   44 % 0.00 in
10:08 95.6 °F 70.9 °F 29.86 in NW 1.2 mph   45 % 0.00 in
10:13 95.8 °F 71.1 °F 29.86 in SSW 1.2 mph   45 % 0.00 in
10:18 96.3 °F 70.8 °F 29.86 in WNW 1.2 mph 1.2 mph 44 % 0.00 in
10:23 96.3 °F 68.8 °F 29.86 in NNW 3.5 mph 3.5 mph 41 % 0.00 in
10:29 96.7 °F 70.5 °F 29.86 in Calm     43 % 0.00 in
10:34 97.3 °F 68.9 °F 29.86 in NNW 1.2 mph 1.2 mph 40 % 0.00 in
10:39 97.8 °F 70.8 °F 29.86 in Calm     42 % 0.00 in
10:44 98.4 °F 72.1 °F 29.86 in WNW 1.2 mph   43 % 0.00 in
10:49 98.8 °F 69.5 °F 29.86 in Calm     39 % 0.00 in
10:54 99.2 °F 69.9 °F 29.86 in ESE 2.3 mph 2.3 mph 39 % 0.00 in
10:59 99.5 °F 70.2 °F 29.86 in NW 1.2 mph 1.2 mph 39 % 0.00 in
11:04 99.7 °F 69.6 °F 29.86 in Calm     38 % 0.00 in
11:09 99.6 °F 67.1 °F 29.86 in SSW 1.2 mph 1.2 mph 35 % 0.00 in
11:14 99.6 °F 68.7 °F 29.86 in Calm     37 % 0.00 in
11:19 100.0 °F 65.7 °F 29.86 in South 1.2 mph 1.2 mph 33 % 0.00 in
11:24 100.6 °F 68.0 °F 29.86 in SSE 2.3 mph 2.3 mph 35 % 0.00 in
11:29 100.8 °F 68.1 °F 29.86 in SSE 2.3 mph 2.3 mph 35 % 0.00 in
11:34 101.0 °F 67.5 °F 29.86 in South 2.3 mph 2.3 mph 34 % 0.00 in
11:39 101.3 °F 67.7 °F 29.85 in SE 1.2 mph 1.2 mph 34 % 0.00 in
11:44 101.6 °F 68.0 °F 29.85 in SSE 3.5 mph 3.5 mph 34 % 0.00 in
11:49 101.7 °F 69.7 °F 29.85 in NNW 2.3 mph 2.3 mph 36 % 0.00 in
11:54 101.8 °F 69.0 °F 29.85 in North 2.0 mph 2.0 mph 35 % 0.00 in
11:59 101.9 °F 67.4 °F 29.85 in NNE 2.3 mph 2.3 mph 33 % 0.00 in
12:04 101.7 °F 67.2 °F 29.85 in North 2.3 mph 2.3 mph 33 % 0.00 in
12:09 102.0 °F 66.6 °F 29.84 in NW 1.2 mph 1.2 mph 32 % 0.00 in
12:14 102.2 °F 66.8 °F 29.84 in WNW 3.5 mph 3.5 mph 32 % 0.00 in
12:19 102.4 °F 66.9 °F 29.83 in NW 2.3 mph 2.3 mph 32 % 0.00 in
12:24 102.5 °F 69.6 °F 29.84 in Calm     35 % 0.00 in
12:29 102.9 °F 68.3 °F 29.83 in NNW 1.2 mph   33 % 0.00 in
12:34 103.3 °F 67.7 °F 29.83 in NNW 2.3 mph 2.3 mph 32 % 0.00 in
12:39 102.6 °F 66.2 °F 29.83 in NW 2.3 mph 2.3 mph 31 % 0.00 in
12:44 102.4 °F 66.9 °F 29.83 in NW 1.2 mph 1.2 mph 32 % 0.00 in
12:49 102.8 °F 69.0 °F 29.83 in South 1.2 mph 1.2 mph 34 % 0.00 in
12:54 102.9 °F 65.5 °F 29.83 in NW 1.2 mph 1.2 mph 30 % 0.00 in
12:59 103.2 °F 66.7 °F 29.83 in NW 1.2 mph 1.2 mph 31 % 0.00 in
13:04 103.4 °F 63.9 °F 29.83 in NNE 1.2 mph 1.2 mph 28 % 0.00 in
13:09 103.3 °F 64.9 °F 29.83 in SE 1.2 mph 1.2 mph 29 % 0.00 in
13:19 103.8 °F 65.3 °F 29.83 in NNW 2.3 mph 2.3 mph 29 % 0.00 in
13:24 103.6 °F 65.1 °F 29.83 in SE 1.2 mph 1.2 mph 29 % 0.00 in
13:29 103.9 °F 66.4 °F 29.82 in North 1.2 mph 1.2 mph 30 % 0.00 in
13:34 103.7 °F 67.1 °F 29.82 in Calm     31 % 0.00 in
13:39 102.8 °F 66.4 °F 29.82 in South 1.2 mph 1.2 mph 31 % 0.00 in
13:44 102.1 °F 63.8 °F 29.82 in WNW 1.2 mph 1.2 mph 29 % 0.00 in
13:49 101.8 °F 65.5 °F 29.81 in Calm     31 % 0.00 in
13:54 101.8 °F 67.3 °F 29.81 in WNW 1.2 mph 1.2 mph 33 % 0.00 in
13:59 101.4 °F 66.1 °F 29.81 in Calm     32 % 0.00 in
14:04 101.3 °F 68.6 °F 29.81 in Calm     35 % 0.00 in
14:09 101.0 °F 67.5 °F 29.81 in Calm     34 % 0.00 in
14:14 100.6 °F 68.0 °F 29.81 in Calm     35 % 0.00 in
14:19 100.4 °F 68.6 °F 29.81 in Calm     36 % 0.00 in
14:24 100.2 °F 70.0 °F 29.81 in Calm     38 % 0.00 in
14:29 100.1 °F 69.9 °F 29.80 in Calm     38 % 0.00 in
14:34 99.7 °F 68.8 °F 29.80 in West 1.2 mph 1.2 mph 37 % 0.00 in
14:39 99.6 °F 68.7 °F 29.80 in WNW 1.2 mph   37 % 0.00 in
14:44 99.5 °F 67.8 °F 29.79 in WNW 1.2 mph 1.2 mph 36 % 0.00 in
14:49 99.7 °F 68.0 °F 29.78 in North 1.2 mph 1.2 mph 36 % 0.00 in
14:54 100.1 °F 67.5 °F 29.78 in NW 2.3 mph   35 % 0.00 in
15:00 100.9 °F 68.2 °F 29.78 in West 1.2 mph   35 % 0.00 in
15:05 101.8 °F 69.0 °F 29.77 in NW 1.2 mph   35 % 0.00 in
15:10 101.7 °F 69.7 °F 29.76 in WNW 1.2 mph 1.2 mph 36 % 0.00 in
15:15 101.8 °F 69.8 °F 29.77 in Calm     36 % 0.00 in
15:20 101.8 °F 69.8 °F 29.77 in SE 1.2 mph 1.2 mph 36 % 0.00 in
15:25 101.7 °F 68.9 °F 29.77 in Calm     35 % 0.00 in
15:30 101.8 °F 68.2 °F 29.76 in SE 1.2 mph   34 % 0.00 in
15:35 102.4 °F 66.0 °F 29.77 in Calm     31 % 0.00 in
15:40 102.5 °F 67.0 °F 29.76 in WNW 1.2 mph 1.2 mph 32 % 0.00 in
15:45 102.6 °F 68.0 °F 29.77 in NW 2.3 mph 2.3 mph 33 % 0.00 in
15:50 102.8 °F 66.4 °F 29.76 in NNW 2.3 mph 2.3 mph 31 % 0.00 in
15:55 102.8 °F 67.3 °F 29.76 in NW 1.2 mph 1.2 mph 32 % 0.00 in
16:00 103.0 °F 68.3 °F 29.75 in NW 2.3 mph 2.3 mph 33 % 0.00 in
16:05 102.9 °F 67.4 °F 29.75 in NNW 3.5 mph 3.5 mph 32 % 0.00 in
16:10 102.7 °F 66.3 °F 29.75 in WNW 3.5 mph 3.5 mph 31 % 0.00 in
16:15 102.6 °F 66.2 °F 29.75 in WNW 2.3 mph 2.3 mph 31 % 0.00 in
16:20 102.6 °F 67.1 °F 29.75 in NW 2.3 mph 2.3 mph 32 % 0.00 in
16:25 102.8 °F 64.4 °F 29.75 in WNW 3.0 mph 3.0 mph 29 % 0.00 in
16:30 103.1 °F 63.7 °F 29.75 in NNW 2.3 mph 2.3 mph 28 % 0.00 in
16:35 103.7 °F 64.2 °F 29.76 in NNW 3.5 mph 3.5 mph 28 % 0.00 in
16:40 103.8 °F 65.3 °F 29.75 in NW 6.0 mph 6.0 mph 29 % 0.00 in
16:45 103.9 °F 60.0 °F 29.75 in WNW 3.5 mph 3.5 mph 24 % 0.00 in
16:50 104.1 °F 59.0 °F 29.75 in WNW 4.6 mph 4.6 mph 23 % 0.00 in
16:52 104.1 °F 59.0 °F 29.75 in NW 2.3 mph 2.3 mph 23 % 0.00 in
16:57 103.8 °F 59.9 °F 29.75 in NW 2.0 mph 2.0 mph 24 % 0.00 in
17:02 103.3 °F 60.6 °F 29.75 in NW 2.3 mph 2.3 mph 25 % 0.00 in
17:07 102.8 °F 60.2 °F 29.74 in WNW 2.3 mph 2.3 mph 25 % 0.00 in
17:12 102.5 °F 61.1 °F 29.74 in WNW 4.0 mph 4.0 mph 26 % 0.00 in
17:17 102.2 °F 59.7 °F 29.74 in NW 8.1 mph 8.1 mph 25 % 0.00 in
17:22 102.0 °F 59.5 °F 29.74 in WNW 4.6 mph 4.6 mph 25 % 0.00 in
17:27 102.0 °F 62.8 °F 29.74 in NW 2.3 mph 2.3 mph 28 % 0.00 in
17:33 101.9 °F 61.6 °F 29.74 in WNW 2.0 mph 2.0 mph 27 % 0.00 in
17:37 101.5 °F 61.3 °F 29.74 in NW 2.3 mph 2.3 mph 27 % 0.00 in
17:42 101.4 °F 63.2 °F 29.73 in NW 2.3 mph 2.3 mph 29 % 0.00 in
17:48 100.8 °F 62.7 °F 29.73 in NW 3.5 mph 3.5 mph 29 % 0.00 in
17:53 100.4 °F 62.4 °F 29.73 in NW 3.5 mph 3.5 mph 29 % 0.00 in
17:58 99.8 °F 62.8 °F 29.73 in NE 3.5 mph 3.5 mph 30 % 0.00 in
18:03 99.0 °F 64.9 °F 29.73 in NW 3.5 mph 3.5 mph 33 % 0.00 in
18:08 98.0 °F 64.0 °F 29.73 in WNW 1.2 mph 1.2 mph 33 % 0.00 in
18:13 97.4 °F 63.5 °F 29.73 in Calm     33 % 0.00 in
18:18 97.0 °F 64.8 °F 29.73 in SSW 1.2 mph 1.2 mph 35 % 0.00 in
18:23 96.4 °F 66.7 °F 29.73 in Calm     38 % 0.00 in
18:28 95.8 °F 67.6 °F 29.73 in Calm     40 % 0.00 in
18:33 95.3 °F 66.4 °F 29.72 in Calm     39 % 0.00 in
18:38 95.0 °F 66.2 °F 29.72 in Calm     39 % 0.00 in
18:43 94.8 °F 66.0 °F 29.72 in Calm     39 % 0.00 in
18:48 94.4 °F 66.4 °F 29.72 in Calm     40 % 0.00 in
18:53 94.1 °F 66.1 °F 29.73 in Calm     40 % 0.00 in
18:58 93.8 °F 65.8 °F 29.73 in Calm     40 % 0.00 in
19:03 93.5 °F 67.6 °F 29.73 in Calm     43 % 0.00 in
19:08 93.1 °F 68.6 °F 29.73 in Calm     45 % 0.00 in
19:13 92.7 °F 68.2 °F 29.74 in Calm     45 % 0.00 in
19:18 92.2 °F 70.9 °F 29.75 in SSW 1.0 mph 1.0 mph 50 % 0.00 in
19:23 91.3 °F 69.5 °F 29.78 in NE 4.6 mph 4.6 mph 49 % 0.00 in
19:28 91.2 °F 66.9 °F 29.79 in SSE 12.0 mph 12.0 mph 45 % 0.00 in
19:33 90.9 °F 67.9 °F 29.80 in South 12.7 mph 12.7 mph 47 % 0.00 in
22:41 86.7 °F 67.5 °F 29.82 in North 5.8 mph 5.8 mph 53 % 0.00 in
22:42 86.7 °F 67.5 °F 29.82 in North 5.8 mph 5.8 mph 53 % 0.00 in
22:48 86.6 °F 67.4 °F 29.82 in WNW 3.5 mph 3.5 mph 53 % 0.00 in
22:53 86.6 °F 67.4 °F 29.82 in WNW 1.2 mph 1.2 mph 53 % 0.00 in
22:58 86.4 °F 67.2 °F 29.82 in WNW 1.2 mph   53 % 0.00 in
23:03 86.1 °F 67.5 °F 29.82 in WNW 1.2 mph   54 % 0.00 in
23:08 85.9 °F 67.3 °F 29.81 in WNW 1.2 mph 1.2 mph 54 % 0.00 in
23:13 85.9 °F 67.3 °F 29.81 in NW 2.3 mph 2.3 mph 54 % 0.00 in
23:18 86.0 °F 67.4 °F 29.81 in WNW 1.2 mph 1.2 mph 54 % 0.00 in
23:23 86.2 °F 67.1 °F 29.81 in WNW 1.2 mph 1.2 mph 53 % 0.00 in
23:28 86.3 °F 67.2 °F 29.81 in West 1.0 mph 1.0 mph 53 % 0.00 in
23:30 86.3 °F 67.2 °F 29.81 in West 1.2 mph   53 % 0.00 in
23:35 86.3 °F 66.6 °F 29.81 in West 1.2 mph 1.2 mph 52 % 0.00 in
23:40 86.4 °F 66.7 °F 29.81 in Calm     52 % 0.00 in
23:41 86.3 °F 66.6 °F 29.81 in Calm   0.1 mph 52 % 0.00 in
23:46 86.2 °F 67.1 °F 29.81 in Calm     53 % 0.00 in
23:51 86.3 °F 67.2 °F 29.81 in Calm     53 % 0.00 in
23:56 86.1 °F 67.5 °F 29.81 in Calm     54 % 0.00 in
Park Place, Exeter, Tulare County, California, USA
Compliments of Weather Underground - 2.5 mb